logo dgac
Lunes 19 de Abril del 2021
Buscar por aerodromo o helipuerto
Ingrese nombre de aeródromo, localidad o designador OACI:

Aeródromo: Quellón (PUB) (SCON)

Ubicación: Chiloé, X Región, Chile (43º 08' 07'' S, 73º 38' 04'' W) Ver ubicación en el mapa

Pistas

Orientación Dimensión Pendiente Superficie Resistencia APCH THR RWY PAPI
04/22 1200 X 24 0,80 ASPH PCN 15 F/C/Y/T No No
Horas de operación HJ
Elevación 13 m / 42 ft
Otra Información Adm : DGAC
Uso : PUB
Ubicado : 2 km SW de Quellón
email : aro.quellon@dgac.gob.cl

Otra información ver AIP-Chile Volumen I AD 3.9-3.8-C
CCCM/FCCV Descargar
andera de Chile
Mapa de Quellón (PUB) (SCON)

Último METAR

METAR SCON 191200Z AUTO 25006KT 210V310 9999 -RA FEW012/// OVC040/// 12/11 Q1003

Último TAF

No hay tafs registrados para este aeródromo

Últimas fotos cámaras

Imagen aerodromo Quellón (PUB) (SCON) Norte tomada el 19-04-2021 12:35:47 Imagen aerodromo Quellón (PUB) (SCON) Sur tomada el 19-04-2021 12:35:58

Último NOTAM

No hay notams registrados para este aeródromo